Time;durP1;ratioP1;P1;durP2;ratioP2;P2;SDS_P1;SDS_P2;PMS_P1;PMS_P2;Temp;Humidity;BMP_temperature;BMP_pressure;BME280_temperature;BME280_humidity;BME280_pressure;Samples;Min_cycle;Max_cycle;Signal;HPM_P1;HPM_P2
2022/03/10 00:01:45;;;;;;;19.23;17.13;;;3.00;73.60;;;;;;5155178;27;20043;-73
2022/03/10 00:04:11;;;;;;;18.13;16.23;;;2.90;74.60;;;;;;5152430;27;20039;-73
2022/03/10 00:06:37;;;;;;;18.50;16.50;;;2.90;74.70;;;;;;5155416;27;20125;-73
2022/03/10 00:09:02;;;;;;;19.17;17.08;;;2.90;75.30;;;;;;5137194;27;20043;-74
2022/03/10 00:11:28;;;;;;;18.25;16.33;;;2.90;75.60;;;;;;5137516;27;20038;-74
2022/03/10 00:13:54;;;;;;;18.77;16.42;;;2.90;75.80;;;;;;5154481;27;20042;-72
2022/03/10 00:16:21;;;;;;;18.70;16.70;;;2.90;76.50;;;;;;5155265;27;20065;-72
2022/03/10 00:18:47;;;;;;;19.58;17.52;;;2.80;76.50;;;;;;5140253;27;20171;-72
2022/03/10 00:21:12;;;;;;;18.98;16.85;;;2.80;77.00;;;;;;5140742;27;20117;-72
2022/03/10 00:23:38;;;;;;;18.45;16.50;;;2.80;77.50;;;;;;5153909;27;20339;-72
2022/03/10 00:26:05;;;;;;;19.92;17.30;;;2.80;78.20;;;;;;5150650;27;20046;-72
2022/03/10 00:28:31;;;;;;;18.95;16.55;;;2.70;78.50;;;;;;5134289;27;20035;-72
2022/03/10 00:30:57;;;;;;;20.35;17.65;;;2.60;78.90;;;;;;5137100;27;20066;-72
2022/03/10 00:33:22;;;;;;;18.67;16.77;;;2.70;79.10;;;;;;5152547;27;20479;-73
2022/03/10 00:35:48;;;;;;;19.90;17.75;;;2.60;79.30;;;;;;5154480;27;20142;-72
2022/03/10 00:38:14;;;;;;;19.67;16.85;;;2.60;79.30;;;;;;5155151;27;20058;-72
2022/03/10 00:40:40;;;;;;;18.73;16.73;;;2.60;79.60;;;;;;5154722;27;20086;-72
2022/03/10 00:43:13;;;;;;;19.13;16.38;;;2.60;80.00;;;;;;5151299;27;20042;-72
2022/03/10 00:45:40;;;;;;;18.60;16.67;;;2.60;80.30;;;;;;5154756;27;20126;-72
2022/03/10 00:48:06;;;;;;;18.63;16.70;;;2.60;80.20;;;;;;5135189;27;20046;-72
2022/03/10 00:50:32;;;;;;;19.45;17.45;;;2.60;80.70;;;;;;5134301;27;20047;-72
2022/03/10 00:52:59;;;;;;;18.98;16.98;;;2.50;80.50;;;;;;5135915;27;20051;-72
2022/03/10 00:55:25;;;;;;;19.48;17.40;;;2.60;80.30;;;;;;5153511;27;20114;-72
2022/03/10 00:57:52;;;;;;;20.45;17.25;;;2.50;80.20;;;;;;5154243;27;20042;-72
2022/03/10 01:00:19;;;;;;;18.98;16.98;;;2.50;80.10;;;;;;5154796;27;20102;-72
2022/03/10 01:02:45;;;;;;;20.27;17.95;;;2.50;80.20;;;;;;5135544;27;20051;-72
2022/03/10 01:05:11;;;;;;;20.58;17.25;;;2.50;80.40;;;;;;5148542;27;20053;-72
2022/03/10 01:07:37;;;;;;;19.38;17.33;;;2.50;80.00;;;;;;5131488;27;20396;-72
2022/03/10 01:10:05;;;;;;;20.85;16.90;;;2.60;79.60;;;;;;5154712;27;20471;-72
2022/03/10 01:12:31;;;;;;;19.73;17.60;;;2.60;79.50;;;;;;5149143;27;20050;-72
2022/03/10 01:14:57;;;;;;;18.88;16.88;;;2.60;79.20;;;;;;5143348;27;20042;-72
2022/03/10 01:17:23;;;;;;;18.65;16.65;;;2.60;79.20;;;;;;5136262;27;20050;-72
2022/03/10 01:19:49;;;;;;;18.90;16.90;;;2.60;79.20;;;;;;5133371;27;20045;-72
2022/03/10 01:22:15;;;;;;;19.70;16.95;;;2.70;79.10;;;;;;5150846;27;20403;-72
2022/03/10 01:24:41;;;;;;;18.08;16.13;;;2.60;79.00;;;;;;5153717;27;20398;-72
2022/03/10 01:27:08;;;;;;;19.00;17.00;;;2.60;79.10;;;;;;5139698;27;20047;-72
2022/03/10 01:29:34;;;;;;;20.20;17.33;;;2.60;78.80;;;;;;5151178;27;20453;-72
2022/03/10 01:32:00;;;;;;;19.63;16.17;;;2.70;78.80;;;;;;5152153;27;20042;-72
2022/03/10 01:34:25;;;;;;;19.42;16.85;;;2.60;79.00;;;;;;5154275;27;20100;-73
2022/03/10 01:36:51;;;;;;;18.92;16.92;;;2.60;79.00;;;;;;5153250;27;20130;-72
2022/03/10 01:39:17;;;;;;;19.33;16.92;;;2.60;79.00;;;;;;5135755;27;20046;-72
2022/03/10 01:41:44;;;;;;;19.75;17.60;;;2.60;79.00;;;;;;5143405;27;20058;-72
2022/03/10 01:44:10;;;;;;;19.88;17.38;;;2.60;79.00;;;;;;5133973;27;20043;-72
2022/03/10 01:46:37;;;;;;;19.52;16.65;;;2.60;78.70;;;;;;5141690;27;20167;-72
2022/03/10 01:49:04;;;;;;;19.00;16.95;;;2.60;78.50;;;;;;5154054;27;20104;-72
2022/03/10 01:51:31;;;;;;;18.63;16.65;;;2.60;78.60;;;;;;5134795;27;20057;-72
2022/03/10 01:53:58;;;;;;;19.70;16.80;;;2.60;78.40;;;;;;5135771;27;20055;-72
2022/03/10 01:56:25;;;;;;;20.35;18.05;;;2.60;78.70;;;;;;5148099;27;20054;-72
2022/03/10 01:58:53;;;;;;;21.17;17.63;;;2.60;78.80;;;;;;5132994;28;20127;-72
2022/03/10 02:01:19;;;;;;;18.85;16.85;;;2.60;78.80;;;;;;5149016;27;20042;-72
2022/03/10 02:03:45;;;;;;;20.35;17.20;;;2.50;78.70;;;;;;5153495;27;20518;-72
2022/03/10 02:06:12;;;;;;;21.63;16.77;;;2.50;78.80;;;;;;5151414;27;20041;-72
2022/03/10 02:11:22;;;;;;;19.70;17.60;;;2.50;78.70;;;;;;5133855;27;20086;-73
2022/03/10 02:13:48;;;;;;;20.35;17.40;;;2.40;78.90;;;;;;5151521;27;20058;-72
2022/03/10 02:19:00;;;;;;;19.10;17.10;;;2.40;79.10;;;;;;5133237;27;20074;-73
2022/03/10 02:21:26;;;;;;;18.15;16.25;;;2.40;79.40;;;;;;5151042;27;20480;-72
2022/03/10 02:23:52;;;;;;;19.10;16.83;;;2.40;79.70;;;;;;5132856;28;20104;-73
2022/03/10 02:26:18;;;;;;;18.75;16.50;;;2.30;79.80;;;;;;5151167;27;20139;-72
2022/03/10 02:28:44;;;;;;;19.65;17.55;;;2.30;79.90;;;;;;5153533;27;20044;-73
2022/03/10 02:31:11;;;;;;;18.10;16.17;;;2.30;79.60;;;;;;5136129;27;20045;-74
2022/03/10 02:33:37;;;;;;;20.25;16.23;;;2.20;79.80;;;;;;5133582;27;20555;-75
2022/03/10 02:36:04;;;;;;;19.35;17.15;;;2.20;79.70;;;;;;5133349;27;20043;-74
2022/03/10 02:38:30;;;;;;;19.60;16.60;;;2.20;79.80;;;;;;5154701;27;20046;-73
2022/03/10 02:40:56;;;;;;;17.80;15.90;;;2.20;79.70;;;;;;5156567;27;20555;-74
2022/03/10 02:43:22;;;;;;;18.75;16.75;;;2.20;79.70;;;;;;5146338;27;20047;-74
2022/03/10 02:45:48;;;;;;;18.80;16.90;;;2.20;79.70;;;;;;5136666;27;20047;-74
2022/03/10 02:48:15;;;;;;;18.15;16.25;;;2.10;80.20;;;;;;5144728;27;20491;-74
2022/03/10 02:50:42;;;;;;;17.30;15.50;;;2.10;80.20;;;;;;5156654;27;20049;-74
2022/03/10 02:53:09;;;;;;;16.55;14.85;;;2.10;80.20;;;;;;5150371;27;20050;-74
2022/03/10 02:55:35;;;;;;;19.33;15.88;;;2.10;80.00;;;;;;5136607;27;20058;-74
2022/03/10 02:58:00;;;;;;;17.25;15.55;;;2.00;80.60;;;;;;5137141;27;20031;-71
2022/03/10 03:00:26;;;;;;;17.75;15.85;;;2.10;79.70;;;;;;5144902;27;20510;-72
2022/03/10 03:02:52;;;;;;;17.10;15.20;;;2.10;79.40;;;;;;5155260;27;20391;-71
2022/03/10 03:05:18;;;;;;;16.95;15.15;;;2.10;79.40;;;;;;5157089;27;20043;-71
2022/03/10 03:07:44;;;;;;;18.17;15.18;;;2.10;79.50;;;;;;5154477;27;20437;-72
2022/03/10 03:10:11;;;;;;;16.83;15.00;;;2.00;79.50;;;;;;5136360;27;20044;-71
2022/03/10 03:12:50;;;;;;;16.55;14.77;;;2.00;79.50;;;;;;5136195;27;20039;-72
2022/03/10 03:15:16;;;;;;;17.00;14.80;;;2.00;79.40;;;;;;5156600;27;20114;-71
2022/03/10 03:17:42;;;;;;;19.13;15.38;;;2.00;79.40;;;;;;5155727;27;20388;-72
2022/03/10 03:20:09;;;;;;;15.90;14.20;;;2.00;79.40;;;;;;5156793;27;20035;-71
2022/03/10 03:22:35;;;;;;;16.80;15.10;;;2.00;79.50;;;;;;5155086;27;20509;-71
2022/03/10 03:25:01;;;;;;;18.13;15.05;;;2.00;79.60;;;;;;5135537;27;20047;-71
2022/03/10 03:27:26;;;;;;;16.77;15.05;;;2.00;79.80;;;;;;5137212;27;20047;-71
2022/03/10 03:29:52;;;;;;;16.38;14.55;;;1.90;79.90;;;;;;5147986;27;20398;-71
2022/03/10 03:32:18;;;;;;;17.77;14.55;;;1.90;79.90;;;;;;5154387;27;20074;-72
2022/03/10 03:34:43;;;;;;;17.52;15.63;;;1.90;80.10;;;;;;5135484;27;20055;-72
2022/03/10 03:37:09;;;;;;;16.63;14.80;;;1.90;80.50;;;;;;5139559;27;20039;-71
2022/03/10 03:39:35;;;;;;;17.15;15.35;;;1.90;80.50;;;;;;5155809;27;20050;-73
2022/03/10 03:42:00;;;;;;;17.08;15.20;;;1.90;80.30;;;;;;5155331;27;20047;-73
2022/03/10 03:44:26;;;;;;;16.48;14.77;;;1.90;80.10;;;;;;5156300;27;20138;-73
2022/03/10 03:46:52;;;;;;;16.65;14.85;;;1.90;79.80;;;;;;5155130;27;20110;-74
2022/03/10 03:49:18;;;;;;;16.63;14.23;;;2.00;79.20;;;;;;5154050;27;20053;-73
2022/03/10 03:51:43;;;;;;;16.35;14.60;;;2.00;78.80;;;;;;5140946;27;20495;-75
2022/03/10 03:54:09;;;;;;;17.52;15.70;;;2.00;78.40;;;;;;5154326;27;20050;-73
2022/03/10 03:56:39;;;;;;;16.42;14.13;;;2.00;78.30;;;;;;5142841;27;20047;-73
2022/03/10 03:59:05;;;;;;;17.70;14.55;;;2.10;78.30;;;;;;5151115;27;20050;-73
2022/03/10 04:01:31;;;;;;;17.48;15.60;;;2.10;78.10;;;;;;5144028;27;20039;-73
2022/03/10 04:03:57;;;;;;;17.23;15.40;;;2.20;78.30;;;;;;5134787;27;20035;-73
2022/03/10 04:06:22;;;;;;;16.38;14.60;;;2.10;78.40;;;;;;5143981;27;20180;-73
2022/03/10 04:08:48;;;;;;;16.35;14.65;;;2.10;79.20;;;;;;5145673;27;20090;-73
2022/03/10 04:11:16;;;;;;;16.35;14.52;;;2.10;78.40;;;;;;5152225;27;20384;-73
2022/03/10 04:13:42;;;;;;;17.65;15.13;;;2.10;78.70;;;;;;5155735;27;20057;-73
2022/03/10 04:16:08;;;;;;;16.83;15.02;;;2.10;78.90;;;;;;5140344;27;20047;-73
2022/03/10 04:18:34;;;;;;;17.15;14.40;;;2.10;79.00;;;;;;5149273;27;20487;-73
2022/03/10 04:21:00;;;;;;;17.90;16.00;;;2.10;79.40;;;;;;5148704;27;20407;-73
2022/03/10 04:23:26;;;;;;;16.73;14.93;;;2.10;80.50;;;;;;5134812;27;20047;-73
2022/03/10 04:25:53;;;;;;;16.85;14.95;;;2.00;80.00;;;;;;5135507;27;20544;-73
2022/03/10 04:28:19;;;;;;;18.00;15.10;;;2.00;80.30;;;;;;5134962;27;20377;-73
2022/03/10 04:30:45;;;;;;;17.13;14.80;;;1.90;80.30;;;;;;5144086;27;20043;-73
2022/03/10 04:33:11;;;;;;;17.33;15.18;;;2.00;80.60;;;;;;5147532;27;20415;-73
2022/03/10 04:35:37;;;;;;;17.55;15.07;;;1.90;80.70;;;;;;5151305;27;20043;-73
2022/03/10 04:38:03;;;;;;;17.90;15.30;;;1.90;80.60;;;;;;5134181;27;20047;-73
2022/03/10 04:40:29;;;;;;;17.35;15.55;;;1.90;80.70;;;;;;5136261;27;20533;-73
2022/03/10 04:42:55;;;;;;;17.45;15.60;;;1.90;80.90;;;;;;5154409;27;20061;-73
2022/03/10 04:45:22;;;;;;;16.83;14.63;;;2.00;80.70;;;;;;5151857;27;20038;-73
2022/03/10 04:47:48;;;;;;;16.77;15.02;;;2.00;80.40;;;;;;5135488;27;20082;-73
2022/03/10 04:50:15;;;;;;;17.00;15.20;;;2.00;80.00;;;;;;5151359;27;20035;-73
2022/03/10 04:52:42;;;;;;;18.10;14.73;;;2.00;79.90;;;;;;5134257;27;20491;-73
2022/03/10 04:55:09;;;;;;;17.33;15.50;;;2.00;79.70;;;;;;5138919;27;20368;-73
2022/03/10 04:57:35;;;;;;;18.50;15.77;;;2.10;79.60;;;;;;5154957;27;20475;-73
2022/03/10 05:00:08;;;;;;;16.63;14.88;;;2.10;79.60;;;;;;5153834;27;20039;-73
2022/03/10 05:02:40;;;;;;;17.60;15.27;;;2.00;79.70;;;;;;5134310;27;20086;-73
2022/03/10 05:05:08;;;;;;;17.38;15.57;;;2.00;79.70;;;;;;5133650;27;20051;-73
2022/03/10 05:07:34;;;;;;;17.67;15.80;;;2.00;79.60;;;;;;5138089;27;20117;-73
2022/03/10 05:10:00;;;;;;;18.65;15.90;;;2.00;79.90;;;;;;5151800;27;20035;-73
2022/03/10 05:12:26;;;;;;;17.48;15.45;;;2.00;79.90;;;;;;5152868;27;20441;-73
2022/03/10 05:14:52;;;;;;;17.00;15.20;;;2.00;80.00;;;;;;5154276;27;20506;-74
2022/03/10 05:17:18;;;;;;;18.27;15.68;;;2.00;80.20;;;;;;5154470;27;20042;-74
2022/03/10 05:19:43;;;;;;;19.48;16.10;;;2.00;80.40;;;;;;5154426;27;20483;-73
2022/03/10 05:22:09;;;;;;;19.02;16.33;;;2.00;80.60;;;;;;5153806;27;20046;-74
2022/03/10 05:24:35;;;;;;;17.10;15.30;;;1.90;80.80;;;;;;5154845;27;20047;-74
2022/03/10 05:27:01;;;;;;;17.77;15.98;;;1.90;81.10;;;;;;5154147;27;20038;-74
2022/03/10 05:29:26;;;;;;;17.10;15.35;;;1.90;81.50;;;;;;5154531;27;20488;-74
2022/03/10 05:31:52;;;;;;;18.17;15.77;;;1.80;81.50;;;;;;5154696;27;20047;-74
2022/03/10 05:34:18;;;;;;;16.88;14.93;;;1.80;81.70;;;;;;5153746;27;20047;-73
2022/03/10 05:36:44;;;;;;;17.98;15.98;;;1.80;81.80;;;;;;5154447;27;20042;-74
2022/03/10 05:39:10;;;;;;;18.50;16.55;;;1.80;81.90;;;;;;5153888;27;20045;-74
2022/03/10 05:41:36;;;;;;;18.45;15.88;;;1.80;82.20;;;;;;5154082;27;20403;-74
2022/03/10 05:44:02;;;;;;;17.63;15.77;;;1.80;82.10;;;;;;5153946;27;20042;-74
2022/03/10 05:46:28;;;;;;;17.65;15.55;;;1.80;82.40;;;;;;5154000;27;20103;-74
2022/03/10 05:48:54;;;;;;;17.85;15.90;;;1.80;82.90;;;;;;5154051;27;20043;-73
2022/03/10 05:51:19;;;;;;;18.17;15.93;;;1.80;83.40;;;;;;5135465;27;20043;-74
2022/03/10 05:53:45;;;;;;;18.48;16.27;;;1.70;83.80;;;;;;5154251;27;20042;-74
2022/03/10 05:56:11;;;;;;;19.02;16.35;;;1.80;84.10;;;;;;5153837;27;20038;-73
2022/03/10 05:58:37;;;;;;;18.33;16.42;;;1.70;84.60;;;;;;5154026;27;20045;-73
2022/03/10 06:01:02;;;;;;;20.80;16.10;;;1.70;85.40;;;;;;5153754;27;20129;-74
2022/03/10 06:03:28;;;;;;;19.05;16.50;;;1.60;85.50;;;;;;5154230;27;20046;-74
2022/03/10 06:05:53;;;;;;;19.27;16.75;;;1.60;86.10;;;;;;5154187;27;20050;-74
2022/03/10 06:08:19;;;;;;;21.05;16.92;;;1.60;86.20;;;;;;5153702;27;20069;-74
2022/03/10 06:10:45;;;;;;;19.20;17.13;;;1.70;86.00;;;;;;5153723;27;20057;-74
2022/03/10 06:13:10;;;;;;;20.23;16.67;;;1.70;87.10;;;;;;5157458;27;20088;-74
2022/03/10 06:15:36;;;;;;;18.40;16.45;;;1.70;86.40;;;;;;5158655;27;20043;-74
2022/03/10 06:18:02;;;;;;;19.23;16.70;;;1.70;86.70;;;;;;5157694;27;20542;-74
2022/03/10 06:20:30;;;;;;;19.30;17.15;;;1.70;86.90;;;;;;5157960;27;20130;-74
2022/03/10 06:22:56;;;;;;;17.92;16.02;;;1.70;86.90;;;;;;5139363;27;20069;-74
2022/03/10 06:25:22;;;;;;;20.60;17.02;;;1.70;86.40;;;;;;5157560;27;20067;-74
2022/03/10 06:27:48;;;;;;;19.73;16.77;;;1.80;86.30;;;;;;5157870;27;20047;-74
2022/03/10 06:30:14;;;;;;;19.63;17.45;;;1.80;86.20;;;;;;5157444;27;20107;-74
2022/03/10 06:32:40;;;;;;;18.75;16.75;;;1.80;86.50;;;;;;5157961;27;20042;-74
2022/03/10 06:35:06;;;;;;;19.85;17.02;;;1.80;86.70;;;;;;5156915;27;20035;-74
2022/03/10 06:37:31;;;;;;;18.48;16.55;;;1.80;87.30;;;;;;5157944;27;20038;-74
2022/03/10 06:39:57;;;;;;;20.27;17.08;;;1.80;87.60;;;;;;5157485;27;20055;-73
2022/03/10 06:42:23;;;;;;;18.65;16.63;;;1.80;88.30;;;;;;5157147;27;20481;-74
2022/03/10 06:44:49;;;;;;;18.75;16.85;;;1.90;88.80;;;;;;5157569;27;20042;-74
2022/03/10 06:47:15;;;;;;;19.23;17.17;;;1.90;88.70;;;;;;5156687;27;20039;-74
2022/03/10 06:49:42;;;;;;;19.83;17.75;;;1.90;88.70;;;;;;5157423;27;20479;-74
2022/03/10 06:52:11;;;;;;;19.02;17.02;;;2.00;89.10;;;;;;5156988;27;20395;-74
2022/03/10 06:54:38;;;;;;;20.75;17.58;;;2.00;89.10;;;;;;5157334;27;20056;-73
2022/03/10 06:57:05;;;;;;;21.10;18.08;;;2.00;89.20;;;;;;5157278;27;20057;-74
2022/03/10 06:59:31;;;;;;;19.63;17.25;;;2.10;89.60;;;;;;5157203;27;20475;-74
2022/03/10 07:01:57;;;;;;;19.98;17.80;;;2.10;90.00;;;;;;5138287;27;20082;-74
2022/03/10 07:04:22;;;;;;;19.33;17.33;;;2.10;90.00;;;;;;5156327;27;20122;-74
2022/03/10 07:06:48;;;;;;;19.63;17.60;;;2.20;90.40;;;;;;5157156;27;20479;-74
2022/03/10 07:09:14;;;;;;;19.77;16.85;;;2.50;90.40;;;;;;5156636;27;20593;-73
2022/03/10 07:11:39;;;;;;;18.27;16.38;;;2.80;89.90;;;;;;5156966;27;20504;-73
2022/03/10 07:14:05;;;;;;;18.73;16.73;;;3.20;88.10;;;;;;5156068;27;20042;-74
2022/03/10 07:16:31;;;;;;;19.55;17.40;;;3.50;86.40;;;;;;5156537;27;20038;-74
2022/03/10 07:18:57;;;;;;;22.42;17.80;;;3.80;84.60;;;;;;5156775;27;20046;-74
2022/03/10 07:21:23;;;;;;;19.00;17.00;;;4.10;83.90;;;;;;5156436;27;20109;-74
2022/03/10 07:23:50;;;;;;;19.13;17.00;;;4.50;82.90;;;;;;5156603;27;20043;-74
2022/03/10 07:26:16;;;;;;;19.50;17.27;;;5.00;80.30;;;;;;5155952;27;20078;-74
2022/03/10 07:28:42;;;;;;;18.98;16.98;;;5.40;79.70;;;;;;5156667;27;20487;-74
2022/03/10 07:31:08;;;;;;;19.08;17.08;;;6.00;77.50;;;;;;5156733;27;20073;-74
2022/03/10 07:33:34;;;;;;;18.63;16.73;;;6.60;75.10;;;;;;5156117;27;20046;-74
2022/03/10 07:36:00;;;;;;;19.55;16.85;;;7.30;72.50;;;;;;5156514;27;20049;-74
2022/03/10 07:38:26;;;;;;;18.52;16.63;;;7.70;69.10;;;;;;5155466;27;20079;-74
2022/03/10 07:40:51;;;;;;;17.13;15.40;;;7.60;68.40;;;;;;5156508;27;20058;-74
2022/03/10 07:43:17;;;;;;;19.95;16.98;;;7.50;68.70;;;;;;5155916;27;20113;-74
2022/03/10 07:45:44;;;;;;;19.00;17.00;;;7.30;68.20;;;;;;5156541;27;20381;-74
2022/03/10 07:48:09;;;;;;;19.88;17.10;;;7.50;68.10;;;;;;5155708;27;20035;-74
2022/03/10 07:50:35;;;;;;;18.65;16.70;;;7.70;67.20;;;;;;5155751;27;20054;-74
2022/03/10 07:53:01;;;;;;;19.20;16.70;;;7.30;67.50;;;;;;5155857;27;20447;-74
2022/03/10 07:55:27;;;;;;;18.70;16.70;;;6.90;68.40;;;;;;5155678;27;20049;-74
2022/03/10 07:57:53;;;;;;;19.67;17.63;;;6.40;70.50;;;;;;5156126;27;20121;-74
2022/03/10 08:00:18;;;;;;;19.17;17.20;;;6.10;72.80;;;;;;5155161;27;20038;-74
2022/03/10 08:02:44;;;;;;;19.88;17.83;;;6.00;74.20;;;;;;5156314;27;20513;-74
2022/03/10 08:05:10;;;;;;;19.27;17.05;;;5.80;75.50;;;;;;5155963;27;20035;-74
2022/03/10 08:07:36;;;;;;;19.38;17.27;;;5.80;77.00;;;;;;5116299;27;20548;-73
2022/03/10 08:10:06;;;;;;;20.05;17.90;;;5.80;78.60;;;;;;5135151;27;20039;-74
2022/03/10 08:12:34;;;;;;;19.50;17.08;;;6.00;81.50;;;;;;5124882;27;20494;-74
2022/03/10 08:15:00;;;;;;;18.35;16.45;;;6.50;79.60;;;;;;5153247;27;20126;-82
2022/03/10 08:17:26;;;;;;;18.77;16.77;;;6.90;78.00;;;;;;5155206;27;20045;-74
2022/03/10 08:19:53;;;;;;;18.35;16.35;;;7.00;75.80;;;;;;5155679;27;20035;-74
2022/03/10 08:22:20;;;;;;;17.73;15.77;;;7.20;75.40;;;;;;5154990;27;20042;-74
2022/03/10 08:24:46;;;;;;;18.27;16.38;;;7.30;73.30;;;;;;5155223;27;20542;-74
2022/03/10 08:27:14;;;;;;;18.73;15.73;;;7.40;71.50;;;;;;5154925;27;20039;-74
2022/03/10 08:29:40;;;;;;;17.88;15.98;;;7.60;70.70;;;;;;5153985;27;20533;-74
2022/03/10 08:32:07;;;;;;;18.00;16.13;;;7.70;70.20;;;;;;5155412;27;20072;-74
2022/03/10 08:34:32;;;;;;;19.45;15.85;;;7.80;68.90;;;;;;5154286;27;20046;-74
2022/03/10 08:36:58;;;;;;;17.88;15.98;;;7.70;68.50;;;;;;5155060;27;20039;-74
2022/03/10 08:39:24;;;;;;;18.63;16.63;;;7.60;69.40;;;;;;5154329;27;20072;-73
2022/03/10 08:41:51;;;;;;;17.77;15.88;;;7.60;70.50;;;;;;5155439;27;20047;-73
2022/03/10 08:44:19;;;;;;;16.00;14.40;;;7.60;70.30;;;;;;5154976;27;20463;-74
2022/03/10 08:46:45;;;;;;;18.60;15.38;;;7.80;69.30;;;;;;5137030;27;20056;-74
2022/03/10 08:49:11;;;;;;;16.25;14.55;;;8.00;69.00;;;;;;5154632;27;20118;-73
2022/03/10 08:51:37;;;;;;;16.83;15.15;;;8.20;67.80;;;;;;5154294;27;20118;-74
2022/03/10 08:54:02;;;;;;;16.88;15.13;;;8.40;67.30;;;;;;5154677;27;20126;-74
2022/03/10 08:56:28;;;;;;;16.80;14.70;;;8.70;65.80;;;;;;5154157;27;20550;-74
2022/03/10 08:58:54;;;;;;;16.48;14.68;;;9.00;65.80;;;;;;5154487;27;20046;-74
2022/03/10 09:01:20;;;;;;;16.55;14.80;;;9.40;65.80;;;;;;5135199;27;20123;-74
2022/03/10 09:03:45;;;;;;;16.30;14.52;;;9.90;62.90;;;;;;5154846;27;20047;-73
2022/03/10 09:06:13;;;;;;;16.98;14.82;;;10.40;61.40;;;;;;5154282;27;20188;-73
2022/03/10 09:08:39;;;;;;;16.17;14.15;;;10.70;59.60;;;;;;5154412;27;20503;-74
2022/03/10 09:11:06;;;;;;;18.05;15.10;;;11.00;58.50;;;;;;5153949;27;20055;-74
2022/03/10 09:13:32;;;;;;;16.15;14.55;;;11.20;57.00;;;;;;5143555;27;20038;-74
2022/03/10 09:15:58;;;;;;;16.25;14.55;;;11.50;57.40;;;;;;5149686;27;20086;-74
2022/03/10 09:18:24;;;;;;;15.77;13.88;;;11.70;56.00;;;;;;5150778;27;20050;-75
2022/03/10 09:20:50;;;;;;;16.20;14.50;;;11.80;55.60;;;;;;5151444;27;20566;-74
2022/03/10 09:23:15;;;;;;;16.17;14.50;;;12.00;54.90;;;;;;5151707;27;20072;-74
2022/03/10 09:25:41;;;;;;;15.40;13.90;;;12.20;54.20;;;;;;5150735;27;20717;-74
2022/03/10 09:28:07;;;;;;;15.85;14.15;;;12.30;54.50;;;;;;5151885;27;20035;-74
2022/03/10 09:30:33;;;;;;;15.50;13.90;;;12.30;54.40;;;;;;5150777;27;20039;-74
2022/03/10 09:32:59;;;;;;;15.30;13.80;;;12.40;53.70;;;;;;5133166;27;20433;-74
2022/03/10 09:35:26;;;;;;;14.93;13.43;;;12.50;54.10;;;;;;5150604;27;20079;-74
2022/03/10 09:37:52;;;;;;;17.77;14.10;;;12.60;54.10;;;;;;5150961;27;20438;-75
2022/03/10 09:40:18;;;;;;;15.15;13.65;;;12.60;53.40;;;;;;5150798;27;20055;-74
2022/03/10 09:42:48;;;;;;;14.93;13.00;;;12.80;53.20;;;;;;5150370;27;20054;-74
2022/03/10 09:45:16;;;;;;;15.80;14.30;;;12.90;52.50;;;;;;5151219;27;20273;-74
2022/03/10 09:47:44;;;;;;;16.63;14.85;;;12.90;52.00;;;;;;5153387;27;20425;-74
2022/03/10 09:50:18;;;;;;;15.25;13.75;;;12.90;52.40;;;;;;5155698;27;20049;-74
2022/03/10 09:52:46;;;;;;;14.73;13.32;;;12.90;52.80;;;;;;5155127;27;20449;-75
2022/03/10 09:55:14;;;;;;;15.48;13.98;;;13.10;52.20;;;;;;5137253;27;20058;-74
2022/03/10 09:57:42;;;;;;;14.57;13.15;;;13.20;52.60;;;;;;5155235;27;20034;-74
2022/03/10 10:00:10;;;;;;;14.82;13.15;;;13.40;51.70;;;;;;5154886;27;20043;-74
2022/03/10 10:02:37;;;;;;;14.73;13.20;;;13.60;51.30;;;;;;5155309;27;20398;-75
2022/03/10 10:05:17;;;;;;;14.55;13.05;;;13.60;51.80;;;;;;5155436;27;20042;-75
2022/03/10 10:08:17;;;;;;;14.88;13.32;;;13.80;50.30;;;;;;5154238;27;20087;-74
2022/03/10 10:10:49;;;;;;;15.02;13.35;;;14.00;49.20;;;;;;5133597;27;20134;-75
2022/03/10 10:13:39;;;;;;;14.50;13.00;;;14.00;47.70;;;;;;5153932;27;20043;-74
2022/03/10 10:16:18;;;;;;;14.77;13.30;;;14.10;46.80;;;;;;5135158;27;20047;-74
2022/03/10 10:18:44;;;;;;;14.45;13.05;;;14.10;48.40;;;;;;5154103;27;20103;-75
2022/03/10 10:21:12;;;;;;;15.68;13.27;;;14.00;47.10;;;;;;5153875;27;20039;-74
2022/03/10 10:23:39;;;;;;;15.98;14.27;;;14.00;47.20;;;;;;5154481;27;20035;-74
2022/03/10 10:26:09;;;;;;;15.95;14.25;;;13.90;45.70;;;;;;5150821;27;20078;-74
2022/03/10 10:28:36;;;;;;;17.08;13.82;;;13.90;46.90;;;;;;5153407;27;20499;-75
2022/03/10 10:31:07;;;;;;;15.13;13.63;;;13.90;47.00;;;;;;5154595;27;20035;-75
2022/03/10 10:33:35;;;;;;;15.23;13.68;;;13.90;46.80;;;;;;5153693;27;20030;-74
2022/03/10 10:36:41;;;;;;;17.02;14.38;;;13.90;46.50;;;;;;5154131;27;20568;-75
2022/03/10 10:39:18;;;;;;;15.40;13.75;;;13.90;48.80;;;;;;5152393;27;20039;-74
2022/03/10 10:41:46;;;;;;;15.73;14.02;;;14.00;46.50;;;;;;5154092;27;20055;-74
2022/03/10 10:44:16;;;;;;;16.00;14.40;;;14.00;46.10;;;;;;5153546;27;20075;-74
2022/03/10 10:46:44;;;;;;;16.65;14.95;;;14.00;47.60;;;;;;5153834;27;20031;-75
2022/03/10 10:49:22;;;;;;;15.95;14.30;;;13.90;46.50;;;;;;5154445;27;20035;-75
2022/03/10 10:51:55;;;;;;;16.35;14.50;;;13.90;46.60;;;;;;5150261;27;20039;-75
2022/03/10 10:54:21;;;;;;;20.23;14.75;;;13.90;46.50;;;;;;5135798;27;20058;-75
2022/03/10 10:56:48;;;;;;;17.48;15.07;;;13.80;46.00;;;;;;5148660;27;20035;-75
2022/03/10 10:59:37;;;;;;;16.48;14.88;;;13.80;46.20;;;;;;5153694;27;20046;-73
2022/03/10 11:02:18;;;;;;;17.58;15.02;;;13.80;45.60;;;;;;5153626;27;20487;-74
2022/03/10 11:04:50;;;;;;;17.98;14.65;;;13.70;44.30;;;;;;5150046;27;20043;-74
2022/03/10 11:07:17;;;;;;;16.83;15.13;;;13.60;45.10;;;;;;5154006;27;20051;-75
2022/03/10 11:09:46;;;;;;;16.05;14.45;;;13.50;45.20;;;;;;5130847;27;20091;-74
2022/03/10 11:12:13;;;;;;;17.95;15.30;;;13.40;45.50;;;;;;5153050;27;20041;-74
2022/03/10 11:14:41;;;;;;;17.77;15.68;;;13.50;44.70;;;;;;5135043;27;20702;-74
2022/03/10 11:17:08;;;;;;;16.65;14.85;;;13.50;44.90;;;;;;5153405;27;20487;-74
2022/03/10 11:19:36;;;;;;;16.85;15.05;;;13.40;44.60;;;;;;5153117;27;20043;-74
2022/03/10 11:22:23;;;;;;;17.08;15.07;;;13.50;44.80;;;;;;5154274;27;20074;-74
2022/03/10 11:24:54;;;;;;;17.13;15.38;;;13.50;45.70;;;;;;5132273;27;20050;-74
2022/03/10 11:27:28;;;;;;;17.13;14.75;;;13.50;44.60;;;;;;5153313;27;20043;-74
2022/03/10 11:29:56;;;;;;;18.42;15.35;;;13.60;43.40;;;;;;5153583;27;20089;-73
2022/03/10 11:32:29;;;;;;;17.90;15.15;;;13.50;43.50;;;;;;5153690;27;20043;-74
2022/03/10 11:34:58;;;;;;;18.70;15.57;;;13.50;43.30;;;;;;5153331;27;20441;-74
2022/03/10 11:37:44;;;;;;;18.20;15.70;;;13.50;44.50;;;;;;5153818;27;20047;-74
2022/03/10 11:40:13;;;;;;;17.27;15.40;;;13.60;44.90;;;;;;5153662;27;20047;-74
2022/03/10 11:42:40;;;;;;;18.50;15.95;;;13.70;45.30;;;;;;5152020;27;20054;-74
2022/03/10 11:45:11;;;;;;;19.50;16.10;;;13.80;45.00;;;;;;5153748;27;20034;-74
2022/03/10 11:47:38;;;;;;;19.20;16.20;;;13.80;45.20;;;;;;5153031;27;20436;-74
2022/03/10 11:50:22;;;;;;;19.42;16.52;;;13.90;43.70;;;;;;5152993;27;20072;-74
2022/03/10 11:52:56;;;;;;;19.73;16.23;;;14.00;44.10;;;;;;5152371;27;20355;-73
2022/03/10 11:55:23;;;;;;;20.15;16.75;;;14.00;43.40;;;;;;5153204;27;20072;-74
2022/03/10 11:57:55;;;;;;;18.45;16.48;;;14.10;44.40;;;;;;5151895;27;20039;-74
2022/03/10 12:00:44;;;;;;;19.20;16.70;;;14.10;46.30;;;;;;5153497;27;20043;-74
2022/03/10 12:03:33;;;;;;;19.88;16.90;;;14.20;44.80;;;;;;5150072;27;20038;-74
2022/03/10 12:06:04;;;;;;;18.50;16.27;;;14.30;44.00;;;;;;5135579;27;20070;-74
2022/03/10 12:08:31;;;;;;;;;;;14.30;43.70;;;;;;5149024;27;20109;-74
2022/03/10 12:11:02;;;;;;;19.63;16.50;;;14.40;45.00;;;;;;5151491;27;19926;-74
2022/03/10 12:13:35;;;;;;;21.40;17.58;;;14.40;44.60;;;;;;5152654;27;20047;-74
2022/03/10 12:16:04;;;;;;;19.00;16.38;;;14.40;45.20;;;;;;5151424;27;20122;-74
2022/03/10 12:18:32;;;;;;;19.38;16.30;;;14.50;45.00;;;;;;5151952;27;20043;-74
2022/03/10 12:20:58;;;;;;;20.58;16.70;;;14.60;44.10;;;;;;5151213;27;20475;-74
2022/03/10 12:23:29;;;;;;;21.15;17.25;;;14.70;43.00;;;;;;5152587;27;20183;-74
2022/03/10 12:26:10;;;;;;;19.63;17.20;;;14.70;42.80;;;;;;5152027;27;20047;-75
2022/03/10 12:28:39;;;;;;;21.58;16.88;;;14.70;44.60;;;;;;5152978;27;20046;-74
2022/03/10 12:31:10;;;;;;;19.35;17.02;;;14.60;43.80;;;;;;5152498;27;20057;-74
2022/03/10 12:33:43;;;;;;;;;;;14.70;42.50;;;;;;5152385;27;20123;-74
2022/03/10 12:36:10;;;;;;;18.88;16.70;;;14.60;42.80;;;;;;5152816;27;19926;-74
2022/03/10 12:38:40;;;;;;;19.80;16.60;;;14.60;43.40;;;;;;5152109;27;20038;-75
2022/03/10 12:41:07;;;;;;;20.13;17.20;;;14.60;44.70;;;;;;5151935;27;20086;-74
2022/03/10 12:43:34;;;;;;;20.40;18.13;;;14.60;45.00;;;;;;5152542;27;20510;-74